Flight Track Log - Related Links

Times and Time Zones

All times are in EDT time to prevent confusion due to time zone crossing. See the DAL863 flight status page for this flight to view local times or setup timezone preferences in your user account.


Time Position Orientation Groundspeed Altitude Reporting Facility
EDT Latitude Longitude Course Direction KTS MPH feet Rate Location/Type
Wed 12:10:52 PM 40.6340 -73.7840 121° Southeast 164 189 100  Level FlightAware ADS-B
Wed 12:11:07 PM 40.6250 -73.7750 143° Southeast 168 193 800 2,400 Climbing FlightAware ADS-B
Wed 12:11:22 PM 40.6120 -73.7730 173° South 185 213 1,300 1,600 Climbing FlightAware ADS-B
Wed 12:11:52 PM 40.5840 -73.7700 175° South 228 262 2,000 1,855 Climbing FlightAware ADS-B
Wed 12:12:17 PM 40.5540 -73.7660 174° South 255 293 3,000 2,533 Climbing FlightAware ADS-B
Wed 12:12:37 PM 40.5310 -73.7630 174° South 264 304 3,900 3,000 Climbing FlightAware ADS-B
Wed 12:12:57 PM 40.5080 -73.7730 198° South 275 316 5,000 3,000 Climbing FlightAware ADS-B
Wed 12:13:17 PM 40.4910 -73.8010 231° Southwest 286 329 5,900 2,933 Climbing FlightAware ADS-B
Wed 12:13:42 PM 40.4760 -73.8370 241° Southwest 287 330 7,200 3,188 Climbing FlightAware ADS-B
Wed 12:13:49 PM 40.4702 -73.8516 242° Southwest 290 334 7,600 3,103 Climbing FlightAware ADS-B
Wed 12:14:11 PM 40.4556 -73.8863 241° Southwest 294 338 8,700 3,000 Climbing FlightAware ADS-B
Wed 12:14:27 PM 40.4454 -73.9111 242° Southwest 295 339 9,500 2,160 Climbing FlightAware ADS-B
Wed 12:15:01 PM 40.4228 -73.9658 242° Southwest 324 373 10,500 1,500 Climbing FlightAware ADS-B
Wed 12:15:31 PM 40.4003 -74.0208 242° Southwest 357 411 11,100 1,400 Climbing FlightAware ADS-B
Wed 12:16:01 PM 40.3757 -74.0801 241° Southwest 379 436 11,900 1,377 Climbing FlightAware ADS-B
Wed 12:16:32 PM 40.3489 -74.1447 241° Southwest 388 447 12,500 590 Climbing FlightAware ADS-B
Wed 12:17:02 PM 40.3232 -74.2068 242° Southwest 384 442 12,500  Level FlightAware ADS-B
Wed 12:17:34 PM 40.2966 -74.2706 241° Southwest 383 441 12,500 462 Level FlightAware ADS-B
Wed 12:18:07 PM 40.2683 -74.3384 241° Southwest 388 447 13,000 1,619 Climbing FlightAware ADS-B
Wed 12:18:37 PM 40.2422 -74.4005 241° Southwest 393 452 14,200 2,400 Climbing FlightAware ADS-B
Wed 12:19:07 PM 40.2155 -74.4650 242° Southwest 401 461 15,400 2,233 Climbing FlightAware ADS-B
Wed 12:19:20 PM 40.2073 -74.4924 249° West 404 465 15,800 1,826 Climbing FlightAware ADS-B
Wed 12:19:30 PM 40.2021 -74.5168 254° West 406 467 16,100 2,000 Climbing FlightAware ADS-B
Wed 12:19:38 PM 40.1994 -74.5359 260° West 407 468 16,400 2,211 Climbing FlightAware ADS-B
Wed 12:20:08 PM 40.1932 -74.6104 264° West 411 473 17,500 2,129 Climbing FlightAware ADS-B
Wed 12:20:40 PM 40.1870 -74.6895 264° West 419 482 18,600 1,935 Climbing FlightAware ADS-B
Wed 12:21:10 PM 40.1810 -74.7662 264° West 425 489 19,500 1,869 Climbing FlightAware ADS-B
Wed 12:21:41 PM 40.1748 -74.8457 264° West 431 496 20,500 1,714 Climbing FlightAware ADS-B
Wed 12:22:13 PM 40.1681 -74.9282 264° West 440 506 21,300 1,548 Climbing FlightAware ADS-B
Wed 12:22:43 PM 40.1615 -75.0102 264° West 449 517 22,100 1,574 Climbing FlightAware ADS-B
Wed 12:23:14 PM 40.1546 -75.0925 264° West 454 522 22,900 1,672 Climbing FlightAware ADS-B
Wed 12:23:44 PM 40.1477 -75.1752 264° West 459 528 23,800 1,619 Climbing FlightAware ADS-B
Wed 12:24:17 PM 40.1402 -75.2654 264° West 462 532 24,600 1,619 Climbing FlightAware ADS-B
Wed 12:24:47 PM 40.1330 -75.3503 264° West 464 534 25,500 1,645 Climbing FlightAware ADS-B
Wed 12:25:19 PM 40.1255 -75.4380 264° West 466 536 26,300 1,429 Climbing FlightAware ADS-B
Wed 12:25:50 PM 40.1180 -75.5250 264° West 472 543 27,000 1,279 Climbing FlightAware ADS-B
Wed 12:26:20 PM 40.1105 -75.6110 264° West 475 547 27,600 1,258 Climbing FlightAware ADS-B
Wed 12:26:52 PM 40.1026 -75.7020 264° West 479 551 28,300 1,524 Climbing FlightAware ADS-B
Wed 12:27:23 PM 40.0946 -75.7922 263° West 476 548 29,200 1,688 Climbing FlightAware ADS-B
Wed 12:27:56 PM 40.0864 -75.8836 263° West 472 543 30,100 1,406 Climbing FlightAware ADS-B
Wed 12:28:27 PM 40.0784 -75.9728 263° West 474 545 30,700 1,238 Climbing FlightAware ADS-B
Wed 12:28:59 PM 40.0703 -76.0626 263° West 474 545 31,400 1,333 Climbing FlightAware ADS-B
Wed 12:29:30 PM 40.0622 -76.1501 263° West 473 544 32,100 1,258 Climbing FlightAware ADS-B
Wed 12:30:01 PM 40.0542 -76.2373 263° West 472 543 32,700 1,377 Climbing FlightAware ADS-B
Wed 12:30:31 PM 40.0461 -76.3240 263° West 470 541 33,500 1,279 Climbing FlightAware ADS-B
Wed 12:31:02 PM 40.0380 -76.4105 263° West 467 537 34,000 476 Climbing FlightAware ADS-B
Wed 12:31:34 PM 40.0294 -76.4998 263° West 467 537 34,000 571 Level FlightAware ADS-B
Wed 12:32:05 PM 40.0211 -76.5857 263° West 465 535 34,600 1,000 Climbing FlightAware ADS-B
Wed 12:32:34 PM 40.0168 -76.6653 266° West 460 529 35,000 800 Climbing FlightAware ADS-B
Wed 12:33:05 PM 40.0195 -76.7505 272° West 461 531 35,400 885 Climbing FlightAware ADS-B
Wed 12:33:35 PM 40.0217 -76.8347 272° West 462 532 35,900 545 Climbing FlightAware ADS-B
Wed 12:34:11 PM 40.0228 -76.9357 271° West 459 528 36,000 82 Climbing FlightAware ADS-B
Wed 12:34:48 PM 40.0230 -77.0355 270° West 455 524 36,000  Level FlightAware ADS-B
Wed 12:35:19 PM 40.0229 -77.1214 270° West 457 526 36,000  Level FlightAware ADS-B
Wed 12:35:50 PM 40.0228 -77.2070 270° West 460 529 36,000  Level FlightAware ADS-B
Wed 12:36:31 PM 40.0228 -77.3203 270° West 463 533 36,000  Level FlightAware ADS-B
Wed 12:37:21 PM 40.0246 -77.4600 271° West 463 533 36,000  Level FlightAware ADS-B
Wed 12:38:12 PM 40.0260 -77.6000 271° West 463 533 36,000  Level FlightAware ADS-B
Wed 12:39:02 PM 40.0270 -77.7260 271° West 463 533 36,000  Level FlightAware ADS-B
Wed 12:40:02 PM 40.0290 -77.9050 271° West 461 531 36,000  Level FlightAware ADS-B
Wed 12:40:37 PM 40.0290 -77.9840 270° West 461 531 36,000  Level FlightAware ADS-B
Wed 12:41:27 PM 40.0310 -78.1380 271° West 459 528 36,000  Level FlightAware ADS-B
Wed 12:42:07 PM 40.0320 -78.2480 271° West 457 526 36,000  Level FlightAware ADS-B
Wed 12:42:47 PM 40.0320 -78.3560 270° West 457 526 36,000  Level FlightAware ADS-B
Wed 12:43:32 PM 40.0330 -78.4830 271° West 456 525 36,000  Level FlightAware ADS-B
Wed 12:44:12 PM 40.0330 -78.5880 270° West 456 525 36,000  Level FlightAware ADS-B
Wed 12:44:57 PM 40.0330 -78.7170 270° West 457 526 36,000  Level FlightAware ADS-B
Wed 12:46:07 PM 40.0330 -78.8960 270° West 457 526 36,000  Level FlightAware ADS-B
Wed 12:46:27 PM 40.0330 -78.9600 270° West 456 525 36,000  Level FlightAware ADS-B
Wed 12:47:12 PM 40.0330 -79.0870 270° West 456 525 36,000  Level FlightAware ADS-B
Wed 12:47:57 PM 40.0330 -79.2090 270° West 456 525 36,000  Level FlightAware ADS-B
Wed 12:48:42 PM 40.0320 -79.3270 269° West 457 526 36,000  Level FlightAware ADS-B
Wed 12:49:37 PM 40.0320 -79.4810 270° West 457 526 36,000  Level FlightAware ADS-B
Wed 12:50:17 PM 40.0310 -79.5950 269° West 457 526 36,000  Level FlightAware ADS-B
Wed 12:51:02 PM 40.0300 -79.7190 269° West 457 526 36,000  Level FlightAware ADS-B
Wed 12:51:37 PM 40.0300 -79.8170 270° West 456 525 36,000  Level FlightAware ADS-B
Wed 12:52:22 PM 40.0290 -79.9310 269° West 456 525 36,000  Level FlightAware ADS-B
Wed 12:53:07 PM 40.0270 -80.0630 269° West 455 524 36,000  Level FlightAware ADS-B
Wed 12:53:47 PM 40.0260 -80.1670 269° West 454 522 36,000  Level FlightAware ADS-B
Wed 12:54:27 PM 40.0250 -80.2770 269° West 453 521 36,000  Level FlightAware ADS-B
Wed 12:55:12 PM 40.0230 -80.4010 269° West 452 520 36,000  Level FlightAware ADS-B
Wed 12:55:52 PM 40.0220 -80.5100 269° West 453 521 36,000  Level FlightAware ADS-B
Wed 12:56:37 PM 40.0200 -80.6300 269° West 453 521 36,000  Level FlightAware ADS-B
Wed 12:57:17 PM 40.0180 -80.7400 269° West 455 524 36,000  Level FlightAware ADS-B
Wed 12:58:02 PM 40.0160 -80.8680 269° West 456 525 36,000  Level FlightAware ADS-B
Wed 12:58:42 PM 40.0150 -80.9750 269° West 457 526 36,000  Level FlightAware ADS-B
Wed 12:59:22 PM 40.0130 -81.0850 269° West 458 527 36,000  Level FlightAware ADS-B
Wed 01:00:07 PM 40.0120 -81.2070 269° West 459 528 36,000  Level FlightAware ADS-B
Wed 01:00:52 PM 40.0090 -81.3330 268° West 459 528 36,000  Level FlightAware ADS-B
Wed 01:01:32 PM 40.0070 -81.4450 269° West 460 529 36,000  Level FlightAware ADS-B
Wed 01:02:12 PM 40.0050 -81.5540 269° West 461 531 36,000  Level FlightAware ADS-B
Wed 01:02:57 PM 40.0020 -81.6790 268° West 462 532 36,000  Level FlightAware ADS-B
Wed 01:03:37 PM 40.0000 -81.7890 269° West 462 532 36,000  Level FlightAware ADS-B
Wed 01:04:22 PM 39.9970 -81.9160 268° West 461 531 36,000  Level FlightAware ADS-B
Wed 01:05:02 PM 39.9940 -82.0280 268° West 460 529 36,000  Level FlightAware ADS-B
Wed 01:05:47 PM 39.9910 -82.1530 268° West 460 529 36,000  Level FlightAware ADS-B
Wed 01:06:27 PM 39.9890 -82.2570 269° West 461 531 36,000  Level FlightAware ADS-B
Wed 01:07:07 PM 39.9860 -82.3700 268° West 461 531 36,000  Level FlightAware ADS-B
Wed 01:07:52 PM 39.9820 -82.4970 268° West 462 532 36,000  Level FlightAware ADS-B
Wed 01:08:32 PM 39.9790 -82.6090 268° West 463 533 36,000  Level FlightAware ADS-B
Wed 01:09:17 PM 39.9760 -82.7320 268° West 464 534 36,000  Level FlightAware ADS-B
Wed 01:09:57 PM 39.9720 -82.8430 267° West 465 535 36,000  Level FlightAware ADS-B
Wed 01:10:37 PM 39.9690 -82.9540 268° West 465 535 36,000  Level FlightAware ADS-B
Wed 01:11:17 PM 39.9650 -83.0700 267° West 465 535 36,000  Level FlightAware ADS-B
Wed 01:11:57 PM 39.9630 -83.1710 269° West 465 535 36,000  Level FlightAware ADS-B
Wed 01:12:37 PM 39.9600 -83.2660 268° West 465 535 36,000  Level FlightAware ADS-B
Wed 01:13:27 PM 39.9260 -83.4170 254° West 461 531 36,000  Level FlightAware ADS-B
Wed 01:14:07 PM 39.9070 -83.5320 258° West 457 526 36,000  Level FlightAware ADS-B
Wed 01:14:52 PM 39.8870 -83.6510 258° West 452 520 36,000  Level FlightAware ADS-B
Wed 01:15:32 PM 39.8690 -83.7580 258° West 448 516 36,000  Level FlightAware ADS-B
Wed 01:16:17 PM 39.8490 -83.8790 258° West 444 511 36,000  Level FlightAware ADS-B
Wed 01:16:57 PM 39.8320 -83.9810 258° West 442 509 36,000  Level FlightAware ADS-B
Wed 01:17:37 PM 39.8160 -84.0870 259° West 440 506 36,000  Level FlightAware ADS-B
Wed 01:18:22 PM 39.8040 -84.2020 262° West 441 507 36,000  Level FlightAware ADS-B
Wed 01:19:02 PM 39.7950 -84.3030 263° West 442 509 36,000  Level FlightAware ADS-B
Wed 01:19:47 PM 39.7830 -84.4130 262° West 442 509 36,000  Level FlightAware ADS-B
Wed 01:20:22 PM 39.7730 -84.5100 262° West 446 513 36,000  Level FlightAware ADS-B
Wed 01:21:07 PM 39.7600 -84.6430 263° West 453 521 36,000  Level FlightAware ADS-B
Wed 01:21:42 PM 39.7510 -84.7340 263° West 456 525 36,000  Level FlightAware ADS-B
Wed 01:22:27 PM 39.7390 -84.8430 262° West 456 525 36,000  Level FlightAware ADS-B
Wed 01:23:22 PM 39.7220 -85.0070 262° West 456 525 36,000  Level FlightAware ADS-B
Wed 01:24:12 PM 39.7090 -85.1330 262° West 455 524 36,000  Level FlightAware ADS-B
Wed 01:24:52 PM 39.6970 -85.2410 262° West 453 521 36,000  Level FlightAware ADS-B
Wed 01:25:47 PM 39.6800 -85.3980 262° West 450 518 36,000  Level FlightAware ADS-B
Wed 01:26:32 PM 39.6670 -85.5180 262° West 447 514 36,000  Level FlightAware ADS-B
Wed 01:27:12 PM 39.6550 -85.6150 261° West 446 513 36,000  Level FlightAware ADS-B
Wed 01:27:52 PM 39.6440 -85.7240 263° West 442 509 36,000  Level FlightAware ADS-B
Wed 01:28:32 PM 39.6330 -85.8240 262° West 439 505 36,000  Level FlightAware ADS-B
Wed 01:29:12 PM 39.6220 -85.9310 262° West 437 503 36,000  Level FlightAware ADS-B
Wed 01:30:02 PM 39.6100 -86.0640 263° West 437 503 36,000  Level FlightAware ADS-B
Wed 01:30:42 PM 39.6000 -86.1690 263° West 436 502 36,000  Level FlightAware ADS-B
Wed 01:31:27 PM 39.5890 -86.2810 263° West 436 502 36,000  Level FlightAware ADS-B
Wed 01:32:07 PM 39.5780 -86.3840 262° West 437 503 36,000  Level FlightAware ADS-B
Wed 01:32:47 PM 39.5670 -86.4960 263° West 436 502 36,000  Level FlightAware ADS-B
Wed 01:33:32 PM 39.5550 -86.6120 262° West 437 503 36,000  Level FlightAware ADS-B
Wed 01:34:12 PM 39.5450 -86.7150 263° West 438 504 36,000  Level FlightAware ADS-B
Wed 01:34:57 PM 39.5330 -86.8290 262° West 439 505 36,000  Level FlightAware ADS-B
Wed 01:35:27 PM 39.5250 -86.9070 262° West 440 506 36,000  Level FlightAware ADS-B
Wed 01:36:07 PM 39.5140 -87.0120 262° West 442 509 36,000  Level FlightAware ADS-B
Wed 01:36:47 PM 39.5030 -87.1210 263° West 444 511 36,000  Level FlightAware ADS-B
Wed 01:37:27 PM 39.4910 -87.2220 261° West 446 513 36,000  Level FlightAware ADS-B
Wed 01:38:07 PM 39.4750 -87.3290 259° West 446 513 36,000  Level FlightAware ADS-B
Wed 01:38:47 PM 39.4580 -87.4220 257° West 448 516 36,000  Level FlightAware ADS-B
Wed 01:39:32 PM 39.4360 -87.5440 257° West 449 517 36,000  Level FlightAware ADS-B
Wed 01:40:17 PM 39.4140 -87.6640 257° West 451 519 36,000  Level FlightAware ADS-B
Wed 01:40:57 PM 39.3960 -87.7600 256° West 451 519 36,000  Level FlightAware ADS-B
Wed 01:41:52 PM 39.3690 -87.9070 257° West 452 520 36,000  Level FlightAware ADS-B
Wed 01:42:37 PM 39.3460 -88.0330 257° West 452 520 36,000  Level FlightAware ADS-B
Wed 01:43:17 PM 39.3260 -88.1370 256° West 452 520 36,000  Level FlightAware ADS-B
Wed 01:44:02 PM 39.3040 -88.2560 257° West 451 519 36,000  Level FlightAware ADS-B
Wed 01:44:42 PM 39.2840 -88.3600 256° West 451 519 36,000  Level FlightAware ADS-B
Wed 01:45:27 PM 39.2620 -88.4780 256° West 452 520 36,000  Level FlightAware ADS-B
Wed 01:46:07 PM 39.2420 -88.5830 256° West 451 519 36,000  Level FlightAware ADS-B
Wed 01:46:47 PM 39.2220 -88.6880 256° West 450 518 36,000  Level FlightAware ADS-B
Wed 01:47:32 PM 39.1990 -88.8040 256° West 449 517 36,000  Level FlightAware ADS-B
Wed 01:48:12 PM 39.1800 -88.9060 257° West 447 514 36,000  Level FlightAware ADS-B
Wed 01:48:57 PM 39.1570 -89.0240 256° West 445 512 36,000  Level FlightAware ADS-B
Wed 01:49:37 PM 39.1370 -89.1260 256° West 444 511 36,000  Level FlightAware ADS-B
Wed 01:50:17 PM 39.1160 -89.2290 255° West 444 511 36,000  Level FlightAware ADS-B
Wed 01:51:02 PM 39.0940 -89.3420 256° West 444 511 36,000  Level FlightAware ADS-B
Wed 01:51:42 PM 39.0730 -89.4440 255° West 444 511 36,000  Level FlightAware ADS-B
Wed 01:52:17 PM 39.0570 -89.5280 256° West 445 512 36,000  Level FlightAware ADS-B
Wed 01:53:07 PM 39.0290 -89.6630 255° West 444 511 36,000  Level FlightAware ADS-B
Wed 01:53:47 PM 39.0150 -89.7680 260° West 445 512 36,000  Level FlightAware ADS-B
Wed 01:54:32 PM 39.0010 -89.8810 261° West 445 512 36,000  Level FlightAware ADS-B
Wed 01:55:27 PM 38.9810 -90.0120 259° West 445 512 36,000  Level FlightAware ADS-B
Wed 01:56:07 PM 38.9680 -90.1000 259° West 445 512 36,000  Level FlightAware ADS-B
Wed 01:56:42 PM 38.9520 -90.2150 260° West 446 513 36,000  Level FlightAware ADS-B
Wed 01:57:27 PM 38.9360 -90.3240 259° West 446 513 36,000  Level FlightAware ADS-B
Wed 01:58:17 PM 38.9160 -90.4630 260° West 447 514 36,000  Level FlightAware ADS-B
Wed 01:59:17 PM 38.8940 -90.6140 259° West 449 517 36,000  Level FlightAware ADS-B
Wed 01:59:57 PM 38.8770 -90.7330 260° West 450 518 36,000  Level FlightAware ADS-B
Wed 02:00:32 PM 38.8650 -90.8220 260° West 450 518 36,000  Level FlightAware ADS-B
Wed 02:01:17 PM 38.8490 -90.9270 259° West 450 518 36,000  Level FlightAware ADS-B
Wed 02:02:07 PM 38.8320 -91.0390 259° West 450 518 36,000  Level FlightAware ADS-B
Wed 02:02:47 PM 38.8180 -91.1280 259° West 450 518 36,000  Level FlightAware ADS-B
Wed 02:03:22 PM 38.7990 -91.2660 260° West 450 518 36,000  Level FlightAware ADS-B
Wed 02:04:07 PM 38.7830 -91.3730 259° West 452 520 36,000  Level FlightAware ADS-B
Wed 02:04:47 PM 38.7700 -91.4620 259° West 452 520 36,000  Level FlightAware ADS-B
Wed 02:05:37 PM 38.7530 -91.5740 259° West 452 520 36,000  Level FlightAware ADS-B
Wed 02:06:17 PM 38.7390 -91.6640 259° West 452 520 36,000  Level FlightAware ADS-B
Wed 02:06:57 PM 38.7260 -91.7530 259° West 452 520 36,000  Level FlightAware ADS-B
Wed 02:07:37 PM 38.7120 -91.8420 259° West 452 520 36,000  Level FlightAware ADS-B
Wed 02:08:17 PM 38.6980 -91.9320 259° West 452 520 36,000  Level FlightAware ADS-B
Wed 02:08:57 PM 38.6850 -92.0210 259° West 452 520 36,000  Level FlightAware ADS-B
Wed 02:09:42 PM 38.6480 -92.2570 259° West 451 519 36,000  Level FlightAware ADS-B
Wed 02:10:27 PM 38.6290 -92.3660 257° West 451 519 36,000  Level FlightAware ADS-B
Wed 02:11:07 PM 38.6150 -92.4550 259° West 451 519 36,000  Level FlightAware ADS-B
Wed 02:11:47 PM 38.6000 -92.5430 258° West 451 519 36,000  Level FlightAware ADS-B
Wed 02:12:37 PM 38.5810 -92.6540 258° West 451 519 36,000  Level FlightAware ADS-B
Wed 02:13:17 PM 38.5670 -92.7430 259° West 451 519 36,000  Level FlightAware ADS-B
Wed 02:13:57 PM 38.5520 -92.8320 258° West 451 519 36,000  Level FlightAware ADS-B
Wed 02:14:32 PM 38.5240 -93.0230 259° West 456 525 36,000  Level FlightAware ADS-B
Wed 02:15:22 PM 38.5020 -93.1540 258° West 458 527 36,000  Level FlightAware ADS-B
Wed 02:16:07 PM 38.4820 -93.2760 258° West 461 531 36,000  Level FlightAware ADS-B
Wed 02:16:47 PM 38.4640 -93.3820 258° West 463 533 36,000  Level FlightAware ADS-B
Wed 02:17:27 PM 38.4460 -93.4890 258° West 465 535 36,000  Level FlightAware ADS-B
Wed 02:18:12 PM 38.4260 -93.6080 258° West 466 536 36,000  Level FlightAware ADS-B
Wed 02:18:52 PM 38.4080 -93.7140 258° West 467 537 36,000  Level FlightAware ADS-B
Wed 02:19:37 PM 38.3860 -93.8380 257° West 467 537 36,000  Level FlightAware ADS-B
Wed 02:20:17 PM 38.3690 -93.9350 257° West 468 539 36,000  Level FlightAware ADS-B
Wed 02:20:57 PM 38.3490 -94.0510 258° West 467 537 36,000  Level FlightAware ADS-B
Wed 02:21:42 PM 38.3280 -94.1740 258° West 465 535 36,000  Level FlightAware ADS-B
Wed 02:22:22 PM 38.3090 -94.2800 257° West 464 534 36,000  Level FlightAware ADS-B
Wed 02:23:07 PM 38.2890 -94.3950 258° West 462 532 36,000  Level FlightAware ADS-B
Wed 02:23:47 PM 38.2700 -94.5020 257° West 460 529 36,000  Level FlightAware ADS-B
Wed 02:24:27 PM 38.2530 -94.6090 259° West 458 527 36,000  Level FlightAware ADS-B
Wed 02:25:12 PM 38.2350 -94.7290 259° West 456 525 36,000  Level FlightAware ADS-B
Wed 02:25:52 PM 38.2180 -94.8320 258° West 454 522 36,000  Level FlightAware ADS-B
Wed 02:26:42 PM 38.1990 -94.9530 259° West 454 522 36,000  Level FlightAware ADS-B
Wed 02:27:32 PM 38.1800 -95.0640 258° West 454 522 36,000  Level FlightAware ADS-B
Wed 02:28:12 PM 38.1650 -95.1530 258° West 454 522 36,000  Level FlightAware ADS-B
Wed 02:28:52 PM 38.1500 -95.2420 258° West 454 522 36,000  Level FlightAware ADS-B
Wed 02:29:32 PM 38.1350 -95.3310 258° West 454 522 36,000  Level FlightAware ADS-B
Wed 02:30:12 PM 38.1200 -95.4190 258° West 454 522 36,000  Level FlightAware ADS-B
Wed 02:31:02 PM 38.1020 -95.5300 258° West 454 522 36,000  Level FlightAware ADS-B
Wed 02:31:42 PM 38.0870 -95.6190 258° West 454 522 36,000  Level FlightAware ADS-B
Wed 02:32:22 PM 38.0720 -95.7080 258° West 454 522 36,000  Level FlightAware ADS-B
Wed 02:33:02 PM 38.0570 -95.7970 258° West 454 522 36,000  Level FlightAware ADS-B
Wed 02:33:42 PM 38.0420 -95.8850 258° West 454 522 36,000  Level FlightAware ADS-B
Wed 02:34:32 PM 38.0240 -95.9960 258° West 454 522 36,000  Level FlightAware ADS-B
Wed 02:35:12 PM 38.0090 -96.0850 258° West 454 522 36,000  Level FlightAware ADS-B
Wed 02:35:52 PM 37.9580 -96.3800 258° West 451 519 36,000  Level FlightAware ADS-B
Wed 02:36:27 PM 37.9690 -96.3160 78° East 448 516 36,000  Level FlightAware ADS-B
Wed 02:37:32 PM 37.9550 -96.4010 258° West 448 516 36,000  Level FlightAware ADS-B
Wed 02:38:12 PM 37.8980 -96.7380 258° West 446 513 36,000  Level FlightAware ADS-B
Wed 02:38:57 PM 37.8780 -96.8520 258° West 444 511 36,000  Level FlightAware ADS-B
Wed 02:39:32 PM 37.8610 -96.9470 257° West 443 510 36,000  Level FlightAware ADS-B
Wed 02:40:17 PM 37.8410 -97.0570 257° West 443 510 36,000  Level FlightAware ADS-B
Wed 02:41:02 PM 37.8200 -97.1730 257° West 443 510 36,000  Level FlightAware ADS-B
Wed 02:41:42 PM 37.8030 -97.2710 258° West 442 509 36,000  Level FlightAware ADS-B
Wed 02:42:27 PM 37.7820 -97.3830 257° West 441 507 36,000  Level FlightAware ADS-B
Wed 02:43:07 PM 37.7630 -97.4860 257° West 441 507 36,000  Level FlightAware ADS-B
Wed 02:43:52 PM 37.7430 -97.5980 257° West 440 506 36,000  Level FlightAware ADS-B
Wed 02:44:32 PM 37.7240 -97.6950 256° West 439 505 36,000  Level FlightAware ADS-B
Wed 02:45:12 PM 37.7050 -97.7940 256° West 438 504 36,000  Level FlightAware ADS-B
Wed 02:45:57 PM 37.6840 -97.9040 256° West 438 504 36,000  Level FlightAware ADS-B
Wed 02:46:47 PM 37.6590 -98.0310 256° West 436 502 36,000  Level FlightAware ADS-B
Wed 02:47:32 PM 37.6390 -98.1350 256° West 434 499 36,000  Level FlightAware ADS-B
Wed 02:48:37 PM 37.6220 -98.2180 256° West 433 498 36,000  Level FlightAware ADS-B
Wed 02:49:27 PM 37.6020 -98.3230 257° West 433 498 36,000  Level FlightAware ADS-B
Wed 02:50:07 PM 37.5850 -98.4060 256° West 433 498 36,000  Level FlightAware ADS-B
Wed 02:50:47 PM 37.5690 -98.4890 256° West 433 498 36,000  Level FlightAware ADS-B
Wed 02:51:27 PM 37.5520 -98.5730 256° West 433 498 36,000  Level FlightAware ADS-B
Wed 02:52:07 PM 37.5360 -98.6560 256° West 433 498 36,000  Level FlightAware ADS-B
Wed 02:52:57 PM 37.5150 -98.7600 256° West 433 498 36,000  Level FlightAware ADS-B
Wed 02:53:37 PM 37.4990 -98.8440 257° West 433 498 36,000  Level FlightAware ADS-B
Wed 02:54:17 PM 37.4820 -98.9270 256° West 433 498 36,000  Level FlightAware ADS-B
Wed 02:54:57 PM 37.4660 -99.0100 256° West 433 498 36,000  Level FlightAware ADS-B
Wed 02:55:37 PM 37.4490 -99.0930 256° West 433 498 36,000  Level FlightAware ADS-B
Wed 02:56:17 PM 37.4330 -99.1770 257° West 433 498 36,000  Level FlightAware ADS-B
Wed 02:57:07 PM 37.4120 -99.2810 256° West 433 498 36,000  Level FlightAware ADS-B
Wed 02:57:47 PM 37.3960 -99.3640 256° West 433 498 36,000  Level FlightAware ADS-B
Wed 02:58:53 PM 37.3053 -99.7697 256° West 420 483 36,000  Level Albuquerque Center
Wed 02:59:54 PM 37.2750 -99.9064 254° West 421 484 36,000  Level Kansas City Center
Wed 03:00:56 PM 37.2425 -100.0642 256° West 420 483 36,000  Level Kansas City Center
Wed 03:01:58 PM 37.2136 -100.1989 255° West 418 481 36,000  Level Kansas City Center
Wed 03:03:00 PM 37.1800 -100.3553 255° West 416 479 36,000  Level Kansas City Center
Wed 03:04:02 PM 37.1503 -100.4892 254° West 415 478 36,000  Level Kansas City Center
Wed 03:05:04 PM 37.1164 -100.6453 255° West 414 476 36,000  Level Kansas City Center
Wed 03:06:06 PM 37.0864 -100.7792 254° West 415 478 36,000  Level Kansas City Center
Wed 03:07:08 PM 37.0519 -100.9356 255° West 416 479 36,000  Level Kansas City Center
Wed 03:08:10 PM 37.0308 -101.0703 259° West 413 475 36,000  Level Kansas City Center
Wed 03:09:12 PM 37.0147 -101.2092 262° West 418 481 36,000  Level Kansas City Center
Wed 03:10:14 PM 36.9942 -101.3681 261° West 416 479 36,000  Level Kansas City Center
Wed 03:11:16 PM 36.9775 -101.5031 261° West 412 474 36,000  Level Albuquerque Center
Wed 03:12:17 PM 36.9569 -101.6592 261° West 408 470 36,000  Level Albuquerque Center
Wed 03:13:19 PM 36.9394 -101.7908 261° West 403 464 36,000  Level Albuquerque Center
Wed 03:14:21 PM 36.9194 -101.9483 261° West 408 470 36,000  Level Albuquerque Center
Wed 03:15:23 PM 36.9014 -102.0806 260° West 406 467 36,000 97 Level Albuquerque Center
Wed 03:16:25 PM 36.8803 -102.2358 260° West 405 466 36,200 829 Climbing Albuquerque Center
Wed 03:17:26 PM 36.8617 -102.3689 260° West 402 463 37,700 878 Climbing Albuquerque Center
Wed 03:18:28 PM 36.8439 -102.5011 261° West 393 452 38,000 145 Climbing Albuquerque Center
Wed 03:19:30 PM 36.8244 -102.6450 260° West 385 443 38,000  Level Albuquerque Center
Wed 03:20:32 PM 36.8056 -102.7767 260° West 384 442 38,000  Level Albuquerque Center
Wed 03:21:34 PM 36.7869 -102.9125 260° West 391 450 38,000  Level Albuquerque Center
Wed 03:22:36 PM 36.7678 -103.0461 260° West 390 449 38,000  Level Albuquerque Center
Wed 03:23:37 PM 36.7486 -103.1786 260° West 388 447 38,000  Level Albuquerque Center
Wed 03:24:39 PM 36.7286 -103.3119 259° West 389 448 38,000  Level Albuquerque Center
Wed 03:25:41 PM 36.7100 -103.4458 260° West 389 448 38,000  Level Albuquerque Center
Wed 03:26:43 PM 36.6864 -103.6033 259° West 392 451 38,000  Level Albuquerque Center
Wed 03:27:45 PM 36.6664 -103.7389 260° West 396 456 38,000  Level Albuquerque Center
Wed 03:28:47 PM 36.6467 -103.8728 260° West 392 451 38,000  Level Albuquerque Center
Wed 03:29:48 PM 36.6261 -104.0061 259° West 390 449 38,000  Level Albuquerque Center
Wed 03:30:50 PM 36.6053 -104.1389 259° West 390 449 38,000  Level Albuquerque Center
Wed 03:31:52 PM 36.5856 -104.2733 260° West 392 451 38,000  Level Albuquerque Center
Wed 03:32:54 PM 36.5642 -104.4083 259° West 394 453 38,000  Level Albuquerque Center
Wed 03:33:56 PM 36.5428 -104.5417 259° West 392 451 38,000 -48 Level Albuquerque Center
Wed 03:34:58 PM 36.5114 -104.6958 256° West 392 451 37,900 -537 Descending Albuquerque Center
Wed 03:35:59 PM 36.4861 -104.8269 257° West 389 448 36,900 -927 Descending Albuquerque Center
Wed 03:37:01 PM 36.4597 -104.9617 256° West 394 453 36,000 -435 Descending Albuquerque Center
Wed 03:38:03 PM 36.4317 -105.0983 256° West 403 464 36,000  Level Albuquerque Center
Wed 03:39:05 PM 36.4044 -105.2322 256° West 400 460 36,000  Level Albuquerque Center
Wed 03:40:07 PM 36.3789 -105.3617 256° West 388 447 36,000  Level Albuquerque Center
Wed 03:41:09 PM 36.3533 -105.4892 256° West 381 438 36,000  Level Albuquerque Center
Wed 03:46:27 PM 36.2100 -106.1860 256° West 387 445 36,000  Level FlightAware ADS-B
Wed 03:47:07 PM 36.1940 -106.2630 256° West 387 445 36,000  Level FlightAware ADS-B
Wed 03:47:57 PM 36.1700 -106.3790 256° West 389 448 36,000  Level FlightAware ADS-B
Wed 03:48:32 PM 36.1560 -106.4450 255° West 389 448 36,000  Level FlightAware ADS-B
Wed 03:49:17 PM 36.1350 -106.5440 255° West 396 456 36,000  Level FlightAware ADS-B
Wed 03:50:07 PM 36.1110 -106.6550 255° West 392 451 36,000  Level FlightAware ADS-B
Wed 03:50:47 PM 36.0920 -106.7430 255° West 397 457 36,000  Level FlightAware ADS-B
Wed 03:51:52 PM 36.0620 -106.8850 255° West 402 463 36,000  Level FlightAware ADS-B
Wed 03:52:32 PM 36.0420 -106.9780 255° West 398 458 36,000  Level FlightAware ADS-B
Wed 03:53:17 PM 36.0200 -107.0780 255° West 398 458 36,000  Level FlightAware ADS-B
Wed 03:53:57 PM 36.0010 -107.1670 255° West 397 457 36,000  Level FlightAware ADS-B
Wed 03:54:42 PM 35.9800 -107.2630 255° West 397 457 36,000  Level FlightAware ADS-B
Wed 03:55:22 PM 35.9610 -107.3490 255° West 399 459 36,000  Level FlightAware ADS-B
Wed 03:56:07 PM 35.9380 -107.4520 255° West 400 460 36,000  Level FlightAware ADS-B
Wed 03:56:47 PM 35.9190 -107.5390 255° West 401 461 36,000  Level FlightAware ADS-B
Wed 03:57:32 PM 35.8980 -107.6300 254° West 399 459 36,000  Level FlightAware ADS-B
Wed 03:58:12 PM 35.8770 -107.7240 255° West 398 458 36,000  Level FlightAware ADS-B
Wed 03:58:52 PM 35.8580 -107.8110 255° West 398 458 36,000  Level FlightAware ADS-B
Wed 03:59:37 PM 35.8380 -107.8980 254° West 398 458 36,000  Level FlightAware ADS-B
Wed 04:00:12 PM 35.8190 -107.9850 255° West 397 457 36,000  Level FlightAware ADS-B
Wed 04:00:57 PM 35.7980 -108.0750 254° West 397 457 36,000  Level FlightAware ADS-B
Wed 04:01:37 PM 35.7800 -108.1490 253° West 397 457 36,000  Level FlightAware ADS-B
Wed 04:02:17 PM 35.7630 -108.2230 254° West 397 457 36,000  Level FlightAware ADS-B
Wed 04:03:07 PM 35.7420 -108.3160 254° West 397 457 36,000  Level FlightAware ADS-B
Wed 04:03:47 PM 35.7250 -108.3900 254° West 397 457 36,000  Level FlightAware ADS-B
Wed 04:04:27 PM 35.7070 -108.4640 253° West 397 457 36,000  Level FlightAware ADS-B
Wed 04:05:12 PM 35.6680 -108.6410 255° West 403 464 36,000  Level FlightAware ADS-B
Wed 04:05:47 PM 35.6520 -108.7100 254° West 403 464 36,000  Level FlightAware ADS-B
Wed 04:06:37 PM 35.6300 -108.8040 254° West 403 464 36,000  Level FlightAware ADS-B
Wed 04:07:17 PM 35.6120 -108.8790 254° West 403 464 36,000  Level FlightAware ADS-B
Wed 04:07:57 PM 35.5950 -108.9540 254° West 403 464 36,000  Level FlightAware ADS-B
Wed 04:08:37 PM 35.5770 -109.0290 254° West 403 464 36,000  Level FlightAware ADS-B
Wed 04:09:17 PM 35.5600 -109.1040 254° West 403 464 36,000  Level FlightAware ADS-B
Wed 04:10:07 PM 35.5380 -109.1980 254° West 403 464 36,000  Level FlightAware ADS-B
Wed 04:10:47 PM 35.5210 -109.2720 254° West 403 464 36,000  Level FlightAware ADS-B
Wed 04:11:27 PM 35.5030 -109.3470 254° West 403 464 36,000  Level FlightAware ADS-B
Wed 04:12:07 PM 35.4860 -109.4220 254° West 403 464 36,000  Level FlightAware ADS-B
Wed 04:12:47 PM 35.4680 -109.4970 254° West 403 464 36,000  Level FlightAware ADS-B
Wed 04:13:27 PM 35.4510 -109.5720 254° West 403 464 36,000  Level FlightAware ADS-B
Wed 04:14:17 PM 35.4290 -109.6650 254° West 403 464 36,000  Level FlightAware ADS-B
Wed 04:14:57 PM 35.4110 -109.7400 254° West 403 464 36,000  Level FlightAware ADS-B
Wed 04:18:37 PM 35.2460 -110.3920 253° West 36,000  Level FlightAware ADS-B
Wed 04:19:32 PM 35.2170 -110.5050 253° West 410 472 36,000  Level FlightAware ADS-B
Wed 04:20:17 PM 35.1890 -110.6180 253° West 412 474 36,000  Level FlightAware ADS-B
Wed 04:20:57 PM 35.1670 -110.7060 253° West 412 474 36,000  Level FlightAware ADS-B
Wed 04:21:42 PM 35.1420 -110.8020 252° West 411 473 36,000  Level FlightAware ADS-B
Wed 04:22:17 PM 35.1230 -110.8800 253° West 410 472 36,000  Level FlightAware ADS-B
Wed 04:23:02 PM 35.0990 -110.9720 252° West 410 472 36,000 568 Level FlightAware ADS-B
Wed 04:23:52 PM 35.0690 -111.0910 253° West 406 467 36,900 1,000 Climbing FlightAware ADS-B
Wed 04:24:32 PM 35.0480 -111.1700 252° West 409 471 37,500 675 Climbing FlightAware ADS-B
Wed 04:25:12 PM 35.0240 -111.2650 253° West 420 483 37,800 400 Climbing FlightAware ADS-B
Wed 04:25:47 PM 35.0030 -111.3450 252° West 425 489 38,000 141 Climbing FlightAware ADS-B
Wed 04:26:37 PM 34.9740 -111.4570 252° West 433 498 38,000  Level FlightAware ADS-B
Wed 04:27:22 PM 34.9440 -111.5710 252° West 433 498 38,000  Level FlightAware ADS-B
Wed 04:28:02 PM 34.9200 -111.6630 252° West 431 496 38,000  Level FlightAware ADS-B
Wed 04:28:47 PM 34.8930 -111.7650 252° West 432 497 38,000  Level FlightAware ADS-B
Wed 04:29:27 PM 34.8700 -111.8540 253° West 432 497 38,000  Level FlightAware ADS-B
Wed 04:30:07 PM 34.8470 -111.9420 252° West 431 496 38,000  Level FlightAware ADS-B
Wed 04:30:52 PM 34.8190 -112.0440 252° West 432 497 38,000  Level FlightAware ADS-B
Wed 04:31:32 PM 34.7920 -112.1490 253° West 432 497 38,000  Level FlightAware ADS-B
Wed 04:32:12 PM 34.7670 -112.2410 252° West 432 497 38,000  Level FlightAware ADS-B
Wed 04:32:52 PM 34.7440 -112.3260 252° West 432 497 38,000  Level FlightAware ADS-B
Wed 04:33:32 PM 34.7190 -112.4190 252° West 432 497 38,000  Level FlightAware ADS-B
Wed 04:34:22 PM 34.6930 -112.5320 254° West 433 498 38,000  Level FlightAware ADS-B
Wed 04:35:02 PM 34.6770 -112.6290 259° West 430 495 38,000  Level FlightAware ADS-B
Wed 04:35:42 PM 34.6610 -112.7320 259° West 430 495 38,000  Level FlightAware ADS-B
Wed 04:36:22 PM 34.6460 -112.8230 259° West 430 495 38,000  Level FlightAware ADS-B
Wed 04:37:02 PM 34.6300 -112.9180 258° West 431 496 38,000  Level FlightAware ADS-B
Wed 04:37:52 PM 34.6100 -113.0310 258° West 433 498 38,000  Level FlightAware ADS-B
Wed 04:38:32 PM 34.5920 -113.1370 258° West 435 501 38,000  Level FlightAware ADS-B
Wed 04:39:17 PM 34.5750 -113.2420 259° West 436 502 38,000  Level FlightAware ADS-B
Wed 04:39:57 PM 34.5580 -113.3350 258° West 436 502 38,000  Level FlightAware ADS-B
Wed 04:40:32 PM 34.5440 -113.4180 258° West 437 503 38,000  Level FlightAware ADS-B
Wed 04:41:22 PM 34.5260 -113.5240 258° West 438 504 38,000  Level FlightAware ADS-B
Wed 04:42:02 PM 34.5030 -113.6540 258° West 437 503 38,000  Level FlightAware ADS-B
Wed 04:42:47 PM 34.4850 -113.7550 258° West 437 503 38,000  Level FlightAware ADS-B
Wed 04:43:22 PM 34.4700 -113.8400 258° West 437 503 38,000  Level FlightAware ADS-B
Wed 04:44:07 PM 34.4500 -113.9520 258° West 437 503 38,000  Level FlightAware ADS-B
Wed 04:44:52 PM 34.4310 -114.0620 258° West 438 504 38,000  Level FlightAware ADS-B
Wed 04:45:32 PM 34.4130 -114.1590 257° West 439 505 38,000  Level FlightAware ADS-B
Wed 04:46:17 PM 34.3950 -114.2640 258° West 441 507 38,000  Level FlightAware ADS-B
Wed 04:46:57 PM 34.3770 -114.3610 257° West 441 507 38,000  Level FlightAware ADS-B
Wed 04:47:47 PM 34.3560 -114.4720 257° West 441 507 38,000  Level FlightAware ADS-B
Wed 04:48:32 PM 34.3350 -114.5900 258° West 441 507 38,000  Level FlightAware ADS-B
Wed 04:49:17 PM 34.3170 -114.6890 258° West 441 507 38,000  Level FlightAware ADS-B
Wed 04:49:57 PM 34.3010 -114.7700 257° West 441 507 38,000 -212 Level FlightAware ADS-B
Wed 04:50:42 PM 34.2790 -114.8940 258° West 441 507 37,700 -212 Descending FlightAware ADS-B
Wed 04:51:22 PM 34.2630 -114.9760 257° West 441 507 37,700  Level FlightAware ADS-B
Wed 04:52:02 PM 34.2470 -115.0570 257° West 441 507 37,700 -2,118 Level FlightAware ADS-B
Wed 04:52:47 PM 34.2210 -115.2030 258° West 443 510 34,700 -2,682 Descending FlightAware ADS-B
Wed 04:53:27 PM 34.1970 -115.3010 254° West 445 512 33,900 -821 Descending FlightAware ADS-B
Wed 04:54:22 PM 34.1420 -115.4040 237° Southwest 449 517 33,400 -316 Descending FlightAware ADS-B
Wed 04:55:02 PM 34.1030 -115.4750 236° Southwest 449 517 33,400 -1,400 Level FlightAware ADS-B
Wed 04:55:22 PM 34.0920 -115.5560 261° West 451 519 32,000 -1,400 Descending FlightAware ADS-B
Wed 04:56:02 PM 34.0840 -115.6530 264° West 451 519 32,000  Level FlightAware ADS-B
Wed 04:56:47 PM 34.0740 -115.7660 264° West 450 518 32,000  Level FlightAware ADS-B
Wed 04:57:27 PM 34.0670 -115.8570 265° West 449 517 32,000  Level FlightAware ADS-B
Wed 04:58:07 PM 34.0570 -115.9670 264° West 449 517 32,000  Level FlightAware ADS-B
Wed 04:58:52 PM 34.0480 -116.0790 264° West 449 517 32,000  Level FlightAware ADS-B
Wed 04:59:32 PM 34.0390 -116.1790 264° West 449 517 32,000 -825 Level FlightAware ADS-B
Wed 05:00:12 PM 34.0310 -116.2770 264° West 444 511 30,900 -2,118 Descending FlightAware ADS-B
Wed 05:00:57 PM 34.0210 -116.3860 264° West 439 505 29,000 -2,541 Descending FlightAware ADS-B
Wed 05:01:37 PM 34.0130 -116.4810 264° West 433 498 27,300 -2,541 Descending FlightAware ADS-B
Wed 05:02:22 PM 34.0030 -116.5920 264° West 427 491 25,400 -2,541 Descending FlightAware ADS-B
Wed 05:03:02 PM 33.9940 -116.6840 263° West 422 486 23,700 -2,541 Descending FlightAware ADS-B
Wed 05:03:47 PM 33.9840 -116.7890 263° West 414 476 21,800 -2,541 Descending FlightAware ADS-B
Wed 05:04:27 PM 33.9760 -116.8760 264° West 406 467 20,100 -2,550 Descending FlightAware ADS-B
Wed 05:05:07 PM 33.9680 -116.9670 264° West 400 460 18,400 -1,976 Descending FlightAware ADS-B
Wed 05:05:52 PM 33.9580 -117.0680 263° West 392 451 17,300 -1,271 Descending FlightAware ADS-B
Wed 05:06:32 PM 33.9510 -117.1510 264° West 363 418 16,600 -1,050 Descending FlightAware ADS-B
Wed 05:07:12 PM 33.9440 -117.2290 264° West 358 412 15,900 -1,200 Descending FlightAware ADS-B
Wed 05:07:57 PM 33.9370 -117.3180 265° West 356 410 14,900 -1,620 Descending FlightAware ADS-B
Wed 05:08:52 PM 33.9480 -117.4240 277° West 346 398 13,200 -1,500 Descending FlightAware ADS-B
Wed 05:09:37 PM 33.9770 -117.5000 295° West 327 376 12,400 -988 Descending FlightAware ADS-B
Wed 05:10:17 PM 34.0000 -117.5640 293° West 307 353 11,800 -1,120 Descending FlightAware ADS-B
Wed 05:10:52 PM 34.0120 -117.6190 285° West 306 352 11,000 -1,059 Descending FlightAware ADS-B
Wed 05:11:42 PM 34.0050 -117.7020 264° West 276 318 10,300 -1,040 Descending FlightAware ADS-B
Wed 05:12:07 PM 34.0020 -117.7390 264° West 272 313 9,700 -1,418 Descending FlightAware ADS-B
Wed 05:12:37 PM 33.9970 -117.7830 262° West 268 308 9,000 -1,500 Descending FlightAware ADS-B
Wed 05:13:07 PM 33.9930 -117.8290 264° West 273 314 8,200 -1,309 Descending FlightAware ADS-B
Wed 05:13:32 PM 33.9890 -117.8670 263° West 257 296 7,800 -764 Descending FlightAware ADS-B
Wed 05:14:02 PM 33.9850 -117.9070 263° West 250 288 7,500 -800 Descending FlightAware ADS-B
Wed 05:14:17 PM 33.9830 -117.9280 263° West 253 291 7,200 -1,200 Descending FlightAware ADS-B
Wed 05:14:42 PM 33.9800 -117.9620 264° West 251 289 6,700 -1,200 Descending FlightAware ADS-B
Wed 05:15:12 PM 33.9750 -118.0050 262° West 244 281 6,100 -1,200 Descending FlightAware ADS-B
Wed 05:15:37 PM 33.9720 -118.0390 264° West 246 283 5,600 -1,350 Descending FlightAware ADS-B
Wed 05:15:52 PM 33.9700 -118.0590 263° West 245 282 5,200 -1,333 Descending FlightAware ADS-B
Wed 05:16:22 PM 33.9660 -118.1000 263° West 231 266 4,600 -1,200 Descending FlightAware ADS-B
Wed 05:16:47 PM 33.9630 -118.1290 263° West 217 250 4,100 -1,200 Descending FlightAware ADS-B
Wed 05:17:02 PM 33.9610 -118.1470 262° West 207 238 3,800 -1,067 Descending FlightAware ADS-B
Wed 05:17:32 PM 33.9580 -118.1810 264° West 201 231 3,300 -933 Descending FlightAware ADS-B
Wed 05:17:47 PM 33.9560 -118.1980 262° West 197 227 3,100 -857 Descending FlightAware ADS-B
Wed 05:18:07 PM 33.9540 -118.2160 262° West 194 223 2,800 -1,091 Descending FlightAware ADS-B
Wed 05:18:42 PM 33.9500 -118.2570 263° West 188 216 2,100 -771 Descending FlightAware ADS-B
Wed 05:19:17 PM 33.9490 -118.2690 264° West 185 213 1,900 -646 Descending FlightAware ADS-B
Wed 05:19:47 PM 33.9450 -118.3040 262° West 155 178 1,400 -600 Descending FlightAware ADS-B
Wed 05:20:27 PM 33.9420 -118.3360 264° West 152 175 1,200 -873 Descending FlightAware ADS-B
Wed 05:20:42 PM 33.9400 -118.3510 261° West 142 163 600 -1,200 Descending FlightAware ADS-B
Wed 05:21:17 PM 33.9380 -118.3750 264° West 133 153 200 -369 Descending FlightAware ADS-B
Wed 05:21:47 PM 33.9360 -118.3960 263° West 131 151 200  Level FlightAware ADS-B

Login

Don't have an account? Register now (free) for customized features, flight alerts, and more!